Latest Weather Observations for Christmas Creek

IDW60801

Issued at 12:02 pm WST Monday 8 February 2016 (issued every 30 minutes, with the page automatically refreshed every 10 minutes)

About weather observations | Map of weather stations | Latest weather observations for WA | Other Formats
Station Details ID: 505049 Name: CHRISTMAS CREEK Lat: -22.36 Lon: 119.65 Height: 437.21 m
Data from the previous 72 hours. | See also: Recent months for locations in Western Australia
Date/Time
WST
Temp
°C
App
Temp
°C
Dew
Point
Rel
Hum
%
Delta-T
°C
Wind Press
QNH
hPa
Press
MSL
hPa
Rain
since 9 am
mm
Dir
 
Spd
km/h
Gust
km/h
Spd
kts
Gust
kts
08/12:00pm 38.5 33.1 6.3 14 18.2 NE 24 35 13 19 1013.1 1009.6 0.0
08/11:30am 38.2 33.7 7.0 15 17.8 ENE 20 37 11 20 1013.7 1010.1 0.0
08/11:00am 37.5 31.0 6.5 15 17.5 ENE 30 43 16 23 1013.9 1010.4 0.0
08/10:30am 36.9 31.6 7.0 16 17.0 E 24 37 13 20 1014.2 1010.7 0.0
08/10:00am 35.7 31.0 7.7 18 16.0 E 22 37 12 20 1014.4 1010.9 0.0
08/09:30am 35.1 29.7 8.0 19 15.5 ESE 26 35 14 19 1014.5 1011.0 0.0
08/09:00am 33.6 28.5 7.6 20 14.7 ESE 24 33 13 18 1014.4 1010.9 0.0
08/08:30am 31.6 26.4 7.3 22 13.5 ESE 24 39 13 21 1014.5 1011.0 0.0
08/08:00am 30.1 26.2 8.5 26 12.1 ESE 19 30 10 16 1014.6 1011.1 0.0
08/07:30am 28.1 24.4 9.4 31 10.6 SE 19 24 10 13 1014.6 1011.1 0.0
08/07:00am 26.3 24.5 10.9 38 8.8 SE 11 17 6 9 1014.4 1010.9 0.0
08/06:30am 24.6 22.7 10.5 41 8.0 SSE 11 15 6 8 1014.2 1010.7 0.0
08/06:00am 24.0 23.0 10.3 42 7.7 SSE 6 7 3 4 1013.8 1010.2 0.0
08/05:30am 23.6 23.0 11.6 47 6.9 SSW 6 9 3 5 1013.6 1010.0 0.0
08/05:00am 23.5 23.0 11.9 48 6.7 S 6 6 3 3 1013.4 1009.8 0.0
08/04:30am 23.2 22.8 12.5 51 6.2 SSW 6 7 3 4 1013.1 1009.6 0.0
08/04:00am 24.1 23.3 11.8 46 7.1 W 7 11 4 6 1013.0 1009.5 0.0
08/03:30am 23.7 23.6 12.0 48 6.8 S 4 7 2 4 1012.8 1009.3 0.0
08/03:00am 24.9 23.9 10.4 40 8.2 SSE 6 7 3 4 1012.7 1009.2 0.0
08/02:30am 26.1 25.5 10.3 37 9.0 E 4 6 2 3 1012.7 1009.2 0.0
08/02:00am 26.4 25.0 8.8 33 9.8 SSE 6 7 3 4 1012.8 1009.3 0.0
08/01:30am 27.1 26.3 8.0 30 10.5 N 2 4 1 2 1013.1 1009.6 0.0
08/01:00am 29.6 27.4 6.3 23 12.6 ESE 7 11 4 6 1013.4 1009.8 0.0
08/12:30am 29.6 27.2 6.9 24 12.4 ESE 9 13 5 7 1013.7 1010.1 0.0
08/12:00am 28.6 27.1 9.3 30 10.9 ESE 7 11 4 6 1014.0 1010.5 0.0
 
Date/Time
WST
Temp
°C
App
Temp
°C
Dew
Point
Rel
Hum
%
Delta-T
°C
Wind Press
QNH
hPa
Press
MSL
hPa
Rain
since 9 am
mm
Dir
 
Spd
km/h
Gust
km/h
Spd
kts
Gust
kts
07/11:30pm 27.1 26.7 12.3 39 8.7 SE 6 7 3 4 1014.2 1010.7 0.0
07/11:00pm 28.9 29.0 11.5 34 10.2 ENE 2 6 1 3 1014.2 1010.7 0.0
07/10:30pm 30.1 29.0 10.1 29 11.5 E 6 7 3 4 1014.1 1010.6 0.0
07/10:00pm 31.2 29.6 8.8 25 12.7 SE 7 11 4 6 1014.0 1010.5 0.0
07/09:30pm 31.8 29.8 8.7 24 13.1 ESE 9 13 5 7 1013.7 1010.1 0.0
07/09:00pm 32.4 30.8 8.6 23 13.6 ESE 7 9 4 5 1013.4 1009.8 0.0
07/08:30pm 32.6 31.4 9.4 24 13.4 SE 6 7 3 4 1012.9 1009.4 0.0
07/08:00pm 34.1 31.6 8.0 20 14.9 SE 11 17 6 9 1012.6 1009.1 0.0
07/07:30pm 35.1 32.0 7.2 18 15.7 SE 13 19 7 10 1012.1 1008.6 0.0
07/07:00pm 36.2 32.7 5.5 15 17.0 SE 13 20 7 11 1011.6 1008.0 0.0
07/06:30pm 37.6 33.5 4.5 13 18.1 SE 15 20 8 11 1011.1 1007.5 0.0
07/06:00pm 38.2 34.2 5.0 13 18.4 SE 15 24 8 13 1010.7 1007.2 0.0
07/05:30pm 38.7 34.6 4.2 12 18.9 E 15 32 8 17 1010.3 1006.8 0.0
07/05:00pm 38.4 35.0 4.0 12 18.8 ENE 11 20 6 11 1010.0 1006.5 0.0
07/04:30pm 39.1 36.6 4.5 12 19.1 NNW 7 17 4 9 1009.8 1006.3 0.0
07/04:00pm 38.6 35.6 4.1 12 18.9 N 9 19 5 10 1009.8 1006.3 0.0
07/03:30pm 39.0 35.3 4.4 12 19.1 ENE 13 28 7 15 1009.8 1006.3 0.0
07/03:00pm 38.7 35.0 4.2 12 19.0 ENE 13 22 7 12 1010.1 1006.6 0.0
07/02:30pm 38.7 35.3 4.2 12 18.9 E 11 30 6 16 1010.4 1006.9 0.0
07/02:00pm 38.4 35.0 4.0 12 18.8 ENE 11 30 6 16 1010.5 1007.0 0.0
07/01:30pm 37.9 34.2 4.7 13 18.3 ENE 13 24 7 13 1011.1 1007.5 0.0
07/01:00pm 37.8 35.1 5.7 14 18.0 NE 9 20 5 11 1011.5 1007.9 0.0
07/12:30pm 37.3 33.8 5.3 14 17.7 E 13 26 7 14 1011.7 1008.1 0.0
07/12:00pm 37.2 33.7 5.3 14 17.7 ENE 13 24 7 13 1012.1 1008.6 0.0
07/11:30am 36.1 31.6 4.4 14 17.2 ENE 17 28 9 15 1012.5 1009.0 0.0
07/11:00am 36.2 31.2 4.5 14 17.3 E 20 32 11 17 1012.8 1009.3 0.0
07/10:30am 35.3 30.5 4.8 15 16.6 ESE 19 28 10 15 1013.3 1009.7 0.0
07/10:00am 34.1 28.9 5.6 17 15.6 ESE 22 32 12 17 1013.5 1009.9 0.0
07/09:30am 32.9 28.1 5.5 18 14.9 ESE 20 30 11 16 1013.7 1010.1 0.0
07/09:00am 32.0 26.8 5.5 19 14.3 ESE 22 32 12 17 1013.7 1010.1 0.0
07/08:30am 30.1 26.2 7.3 24 12.6 ESE 17 24 9 13 1013.6 1010.0 0.0
07/08:00am 28.0 24.4 8.3 29 10.9 ESE 17 22 9 12 1013.6 1010.0 0.0
07/07:30am 26.2 24.3 10.4 37 9.0 SE 11 20 6 11 1013.3 1009.7 0.0
07/07:00am 23.9 23.1 12.8 49 6.5 SSE 9 11 5 6 1013.1 1009.6 0.0
07/06:30am 22.3 22.3 13.6 58 5.1 S 6 9 3 5 1012.9 1009.4 0.0
07/06:00am 20.7 20.8 13.9 65 4.0 S 6 7 3 4 1012.6 1009.1 0.0
07/05:30am 21.3 22.2 14.0 63 4.3 SSE 2 6 1 3 1012.4 1008.9 0.0
07/05:00am 21.5 22.4 13.9 62 4.5 S 2 4 1 2 1012.1 1008.6 0.0
07/04:30am 21.9 22.5 13.0 57 5.2 S 2 6 1 3 1011.7 1008.1 0.0
07/04:00am 22.6 21.6 12.3 52 6.0 S 9 11 5 6 1011.5 1007.9 0.0
07/03:30am 23.6 22.7 10.6 44 7.3 SSW 6 7 3 4 1011.3 1007.7 0.0
07/03:00am 24.6 24.6 11.2 43 7.7 NNW 2 2 1 1 1011.3 1007.7 0.0
07/02:30am 24.8 24.8 11.0 42 7.9 E 2 6 1 3 1011.2 1007.6 0.0
07/02:00am 25.6 25.2 9.8 37 8.9 SE 2 4 1 2 1011.3 1007.7 0.0
07/01:30am 26.5 25.5 10.2 36 9.3 ENE 6 6 3 3 1011.3 1007.7 0.0
07/01:00am 27.9 26.5 9.7 32 10.3 ESE 7 9 4 5 1011.5 1007.9 0.0
07/12:30am 28.8 26.9 9.0 29 11.2 ESE 9 17 5 9 1011.7 1008.1 0.0
07/12:00am 29.0 26.9 9.7 30 11.0 ESE 11 15 6 8 1011.8 1008.3 0.0
 
Date/Time
WST
Temp
°C
App
Temp
°C
Dew
Point
Rel
Hum
%
Delta-T
°C
Wind Press
QNH
hPa
Press
MSL
hPa
Rain
since 9 am
mm
Dir
 
Spd
km/h
Gust
km/h
Spd
kts
Gust
kts
06/11:30pm 28.6 27.5 12.1 36 9.8 E 9 13 5 7 1012.0 1008.5 0.0
06/11:00pm 28.7 26.9 12.2 36 9.8 ESE 13 17 7 9 1012.1 1008.6 0.0
06/10:30pm 28.6 27.9 13.3 39 9.2 ESE 9 11 5 6 1012.2 1008.7 0.0
06/10:00pm 28.7 28.1 12.2 36 9.8 SSE 7 7 4 4 1012.1 1008.6 0.0
06/09:30pm 30.6 29.7 10.5 29 11.7 ESE 6 7 3 4 1012.0 1008.5 0.0
06/09:00pm 31.3 30.0 10.1 27 12.3 ESE 7 11 4 6 1011.8 1008.3 0.0
06/08:30pm 31.9 30.1 9.4 25 12.9 SE 9 13 5 7 1011.5 1007.9 0.0
06/08:00pm 32.7 30.4 8.9 23 13.7 SE 11 13 6 7 1011.3 1007.7 0.0
06/07:30pm 33.5 30.6 8.2 21 14.4 SSE 13 19 7 10 1011.0 1007.4 0.0
06/07:00pm 34.4 31.7 8.9 21 14.7 SE 13 19 7 10 1010.4 1006.9 0.0
06/06:30pm 35.2 31.7 7.3 18 15.8 SSE 15 20 8 11 1009.9 1006.4 0.0
06/06:00pm 36.0 32.5 7.1 17 16.4 SSE 15 20 8 11 1009.8 1006.3 0.0
06/05:30pm 36.5 32.5 6.6 16 16.8 S 17 22 9 12 1009.6 1006.0 0.0
06/05:00pm 36.9 32.4 6.0 15 17.3 SSE 19 28 10 15 1009.6 1006.0 0.0
06/04:30pm 36.8 32.6 5.9 15 17.2 SSE 17 28 9 15 1009.5 1005.9 0.0
06/04:00pm 36.7 31.8 4.9 14 17.5 SE 20 32 11 17 1009.6 1006.0 0.0
06/03:30pm 37.0 32.7 7.0 16 17.0 SSE 19 35 10 19 1009.6 1006.0 0.0
06/03:00pm 37.4 33.5 7.3 16 17.2 SSE 17 33 9 18 1009.8 1006.3 0.0
06/02:30pm 36.9 32.4 7.0 16 17.0 SSE 20 32 11 17 1010.2 1006.7 0.0
06/02:00pm 36.2 32.2 8.1 18 16.2 SSE 19 30 10 16 1010.4 1006.9 0.0
06/01:30pm 36.8 33.4 7.8 17 16.6 S 15 20 8 11 1010.7 1007.2 0.0
06/01:00pm 36.4 32.8 6.6 16 16.8 S 15 26 8 14 1011.1 1007.5 0.0
06/12:30pm 36.2 33.1 7.3 17 16.4 SSE 13 24 7 13 1011.4 1007.8 0.0
06/12:00pm 35.0 31.7 9.4 21 14.9 SSE 17 26 9 14 1011.9 1008.4 0.0
06/11:30am 34.3 31.9 8.8 21 14.7 ESE 11 20 6 11 1012.3 1008.8 0.0
06/11:00am 33.7 31.0 9.0 22 14.2 SSE 13 22 7 12 1012.8 1009.3 0.0
06/10:30am 33.5 30.8 8.9 22 14.1 SE 13 22 7 12 1013.1 1009.6 0.0
06/10:00am 32.4 29.6 8.6 23 13.6 E 13 20 7 11 1013.4 1009.8 0.0
06/09:30am 31.8 27.9 8.7 24 13.1 E 19 26 10 14 1013.6 1010.0 0.0
06/09:00am 30.9 27.1 9.2 26 12.4 ENE 19 28 10 15 1013.6 1010.0 0.0
06/08:30am 30.0 26.6 9.0 27 11.9 E 17 22 9 12 1013.7 1010.1 0.0
06/08:00am 28.0 27.3 13.1 39 8.9 ESE 9 15 5 8 1013.6 1010.0 0.0
06/07:30am 26.2 26.4 14.6 48 7.1 S 7 11 4 6 1013.4 1009.8 0.0
06/07:00am 24.8 25.7 16.2 58 5.4 SSE 6 9 3 5 1013.4 1009.8 0.0
06/06:30am 23.5 25.7 17.5 69 3.8 S 2 6 1 3 1012.9 1009.4 0.0
06/06:00am 22.4 23.9 17.5 74 3.1 S 6 9 3 5 1012.6 1009.1 0.0
06/05:30am 22.4 23.8 17.3 73 3.2 SSW 6 7 3 4 1012.0 1008.5 0.0
06/05:00am 23.6 25.3 16.1 62 4.6 WNW 2 6 1 3 1011.5 1007.9 0.0
06/04:30am 23.3 24.3 15.4 61 4.8 SW 4 6 2 3 1011.2 1007.6 0.0
06/04:00am 24.1 24.3 14.2 54 6.0 SE 6 13 3 7 1011.1 1007.5 0.0
06/03:30am 26.6 25.6 12.3 41 8.4 NE 9 13 5 7 1010.6 1007.1 0.0
06/03:00am 26.6 26.4 13.0 43 8.1 ENE 6 6 3 3 1010.4 1006.9 0.0
06/02:30am 27.3 27.1 12.9 41 8.6 E 6 9 3 5 1010.3 1006.8 0.0
06/02:00am 26.9 27.4 14.0 45 7.8 ENE 4 6 2 3 1010.3 1006.8 0.0
06/01:30am 27.6 27.6 13.5 41 8.5 E 6 9 3 5 1010.5 1007.0 0.0
06/01:00am 28.6 28.1 12.5 37 9.6 SE 7 9 4 5 1010.7 1007.2 0.0
06/12:30am 29.5 28.6 11.5 33 10.6 ESE 7 13 4 7 1011.1 1007.5 0.0
06/12:00am 29.3 28.3 12.3 35 10.1 ESE 9 15 5 8 1011.3 1007.7 0.0
 
Date/Time
WST
Temp
°C
App
Temp
°C
Dew
Point
Rel
Hum
%
Delta-T
°C
Wind Press
QNH
hPa
Press
MSL
hPa
Rain
since 9 am
mm
Dir
 
Spd
km/h
Gust
km/h
Spd
kts
Gust
kts
05/11:30pm 29.2 28.3 12.6 36 9.9 ESE 9 13 5 7 1011.4 1007.8 0.0
05/11:00pm 29.6 29.1 12.5 35 10.2 ESE 7 9 4 5 1011.8 1008.3 0.0
05/10:30pm 30.4 29.3 11.9 32 11.0 SE 9 13 5 7 1011.8 1008.3 0.0
05/10:00pm 30.8 29.2 11.7 31 11.3 SE 11 15 6 8 1011.8 1008.3 0.0
05/09:30pm 31.2 30.1 12.1 31 11.4 SE 9 15 5 8 1011.6 1008.0 0.0
05/09:00pm 31.9 30.1 12.2 30 11.9 SE 13 20 7 11 1011.3 1007.7 0.0
05/08:30pm 32.3 30.1 12.0 29 12.2 SSE 15 20 8 11 1011.0 1007.4 0.0
05/08:00pm 32.6 31.2 12.3 29 12.3 SE 11 17 6 9 1010.7 1007.2 0.0
05/07:30pm 33.2 31.8 12.2 28 12.7 SSE 11 15 6 8 1010.5 1007.0 0.0
05/07:00pm 34.0 32.1 11.8 26 13.4 SSE 13 19 7 10 1010.0 1006.5 0.0
05/06:30pm 35.1 32.5 12.1 25 14.0 SSE 17 26 9 14 1009.7 1006.2 0.0
05/06:00pm 35.5 32.3 11.8 24 14.4 SSE 20 28 11 15 1009.4 1005.8 0.0
05/05:30pm 36.1 32.6 12.3 24 14.6 SSE 22 30 12 16 1009.2 1005.6 0.0
05/05:00pm 36.4 32.4 11.9 23 14.9 S 24 33 13 18 1009.0 1005.4 0.0
05/04:30pm 37.0 34.1 12.4 23 15.1 S 19 30 10 16 1008.9 1005.3 0.0
05/04:00pm 36.6 33.7 12.8 24 14.7 S 20 32 11 17 1009.0 1005.4 0.0
05/03:30pm 36.6 34.0 12.1 23 15.0 ESE 17 28 9 15 1009.1 1005.5 0.0
05/03:00pm 36.6 34.0 12.1 23 15.0 SE 17 32 9 17 1009.3 1005.7 0.0
05/02:30pm 36.1 35.1 12.3 24 14.6 ESE 9 19 5 10 1009.5 1005.9 0.0
05/02:00pm 35.6 33.2 12.5 24 14.2 ESE 17 30 9 16 1009.8 1006.3 0.0
05/01:30pm 35.5 32.7 12.5 25 14.1 SE 19 30 10 16 1009.9 1006.4 0.0
05/01:00pm 35.7 32.9 13.2 26 13.9 SE 20 33 11 18 1010.3 1006.8 0.0
05/12:30pm 35.4 32.3 13.5 26 13.6 SE 22 32 12 17 1010.7 1007.2 0.0

Other Formats:

Comma delimited format used in spreadsheet applications
http://www.bom.gov.au/fwo/IDW60801/IDW60801.99737.axf

JavaScript Object Notation format (JSON) in row-major order
http://www.bom.gov.au/fwo/IDW60801/IDW60801.99737.json